Terminal Aerodrome Forecast
Issued by NWS

Current Version | Previous Version | Text Only | Print | Product List | Glossary On
Versions: 1 2 3 4 5 6 7 8 9 10 11 12 13 14 15 16 17 18 19 20 21 22
000
FTUS41 KBGM 231100
TAFELM
TAF
KELM 231132Z 2312/2412 23004KT P6SM BKN035 OVC080
      TEMPO 2314/2317 -SHRA OVC030
     FM232000 16005KT P6SM SCT040 BKN080
     FM240400 16005KT P6SM -SHRA OVC020 WS015/18045KT
     FM240700 19008KT 4SM -SHRA BR OVC012 WS015/16050KT=

USA.gov is the U.S. government's official web portal to all federal, state and local government web resources and services.